Time;durP1;ratioP1;P1;durP2;ratioP2;P2;SDS_P1;SDS_P2;PMS_P1;PMS_P2;Temp;Humidity;BMP_temperature;BMP_pressure;BME280_temperature;BME280_humidity;BME280_pressure;Samples;Min_cycle;Max_cycle;Signal;HPM_P1;HPM_P2
2022/11/07 00:02:10;;;;;;;3.08;1.40;;;16.50;86.10;;;;;;5065016;28;20024;-73
2022/11/07 00:04:36;;;;;;;5.47;1.67;;;16.50;86.20;;;;;;5064430;28;20115;-72
2022/11/07 00:07:02;;;;;;;4.40;1.45;;;16.50;86.20;;;;;;5064911;28;20095;-73
2022/11/07 00:09:28;;;;;;;3.92;1.20;;;16.50;86.10;;;;;;5065041;28;20024;-73
2022/11/07 00:11:54;;;;;;;5.55;1.60;;;16.50;85.90;;;;;;5063526;28;20032;-73
2022/11/07 00:14:20;;;;;;;3.45;1.40;;;16.50;85.80;;;;;;5063166;28;20383;-73
2022/11/07 00:16:47;;;;;;;3.17;1.20;;;16.50;85.50;;;;;;5064635;28;20028;-73
2022/11/07 00:19:16;;;;;;;3.50;1.30;;;16.50;85.50;;;;;;5064845;28;20057;-72
2022/11/07 00:21:42;;;;;;;4.60;1.27;;;16.50;85.70;;;;;;5062836;28;20029;-72
2022/11/07 00:24:08;;;;;;;4.10;1.20;;;16.50;85.60;;;;;;5064151;28;20463;-73
2022/11/07 00:26:35;;;;;;;5.07;1.42;;;16.50;85.80;;;;;;5063177;28;20411;-72
2022/11/07 00:29:01;;;;;;;2.70;1.00;;;16.50;85.80;;;;;;5064867;28;20021;-73
2022/11/07 00:31:26;;;;;;;3.03;1.20;;;16.50;85.90;;;;;;5064565;28;20082;-73
2022/11/07 00:33:52;;;;;;;3.83;1.20;;;16.50;86.00;;;;;;5064212;28;20032;-72
2022/11/07 00:36:21;;;;;;;5.13;1.30;;;16.40;86.10;;;;;;5064504;28;20039;-72
2022/11/07 00:38:46;;;;;;;2.95;1.10;;;16.40;86.10;;;;;;5062936;28;20028;-73
2022/11/07 00:41:12;;;;;;;3.85;1.38;;;16.40;86.10;;;;;;5066732;28;20082;-72
2022/11/07 00:43:37;;;;;;;3.15;1.25;;;16.40;86.20;;;;;;5068317;28;20025;-73
2022/11/07 00:46:05;;;;;;;4.63;1.30;;;16.40;86.20;;;;;;5066967;28;20017;-72
2022/11/07 00:48:31;;;;;;;4.18;1.35;;;16.40;86.20;;;;;;5068297;28;20498;-73
2022/11/07 00:50:57;;;;;;;2.75;1.27;;;16.30;86.20;;;;;;5068384;28;20471;-72
2022/11/07 00:53:22;;;;;;;3.22;1.20;;;16.30;86.20;;;;;;5067974;28;20032;-74
2022/11/07 00:55:48;;;;;;;3.17;1.23;;;16.30;86.30;;;;;;5068200;28;20046;-73
2022/11/07 00:58:16;;;;;;;2.72;1.08;;;16.30;86.30;;;;;;5067006;28;20078;-73
2022/11/07 01:00:41;;;;;;;2.25;1.10;;;16.30;86.30;;;;;;5068174;28;20108;-72
2022/11/07 01:06:00;;;;;;;2.90;1.20;;;16.30;86.40;;;;;;5066230;28;20238;-73
2022/11/07 01:08:26;;;;;;;3.63;1.23;;;16.30;86.20;;;;;;5049309;28;20031;-73
2022/11/07 01:10:53;;;;;;;3.20;1.17;;;16.30;86.00;;;;;;5065961;28;20115;-74
2022/11/07 01:13:18;;;;;;;3.10;1.25;;;16.40;85.90;;;;;;5053051;28;20489;-74
2022/11/07 01:15:44;;;;;;;3.67;1.30;;;16.40;86.00;;;;;;5062430;28;20025;-74
2022/11/07 01:18:09;;;;;;;2.50;0.90;;;16.40;85.90;;;;;;5052776;28;20024;-74
2022/11/07 01:20:35;;;;;;;1.85;1.02;;;16.30;85.70;;;;;;5048526;28;20075;-75
2022/11/07 01:23:01;;;;;;;3.40;1.27;;;16.40;85.50;;;;;;5059183;28;20027;-74
2022/11/07 01:25:26;;;;;;;2.63;1.10;;;16.40;85.70;;;;;;5067439;28;20025;-75
2022/11/07 01:27:52;;;;;;;2.67;1.10;;;16.30;85.80;;;;;;5066327;28;20040;-73
2022/11/07 01:30:17;;;;;;;3.40;1.20;;;16.30;85.90;;;;;;5066423;28;20069;-75
2022/11/07 01:32:43;;;;;;;2.00;0.90;;;16.30;86.00;;;;;;5067076;28;20028;-75
2022/11/07 01:35:09;;;;;;;3.53;1.25;;;16.30;86.10;;;;;;5066142;28;20017;-75
2022/11/07 01:37:34;;;;;;;1.98;0.90;;;16.30;86.30;;;;;;5065934;28;20032;-75
2022/11/07 01:40:00;;;;;;;2.72;1.30;;;16.20;86.10;;;;;;5066260;28;20867;-74
2022/11/07 01:42:26;;;;;;;2.45;1.10;;;16.20;86.10;;;;;;5067109;28;20035;-75
2022/11/07 01:44:55;;;;;;;4.35;1.30;;;16.30;86.90;;;;;;5065896;28;20021;-74
2022/11/07 01:47:22;;;;;;;1.55;0.90;;;16.20;86.30;;;;;;5065991;28;20017;-74
2022/11/07 01:49:49;;;;;;;1.65;0.90;;;16.20;86.20;;;;;;5067146;28;20575;-74
2022/11/07 01:52:26;;;;;;;1.52;1.00;;;16.20;86.40;;;;;;5065351;28;20028;-75
2022/11/07 01:55:14;;;;;;;1.98;1.00;;;16.20;86.40;;;;;;5067017;28;20021;-75
2022/11/07 01:57:45;;;;;;;2.63;1.17;;;16.20;86.40;;;;;;5065769;28;20021;-73
2022/11/07 02:00:14;;;;;;;2.70;1.10;;;16.20;86.40;;;;;;5064828;28;20028;-74
2022/11/07 02:02:41;;;;;;;2.25;1.10;;;16.20;86.30;;;;;;5082019;28;20033;-74
2022/11/07 02:05:08;;;;;;;3.60;1.20;;;16.20;86.50;;;;;;5062236;28;20036;-74
2022/11/07 02:07:35;;;;;;;2.50;1.05;;;16.20;86.50;;;;;;5056167;28;20087;-74
2022/11/07 02:10:02;;;;;;;1.95;0.98;;;16.20;86.20;;;;;;5052343;28;20021;-73
2022/11/07 02:12:28;;;;;;;2.60;1.13;;;16.20;86.00;;;;;;5062354;28;20051;-74
2022/11/07 02:14:54;;;;;;;2.03;1.00;;;16.20;86.10;;;;;;5046188;28;20025;-75
2022/11/07 02:17:20;;;;;;;2.83;1.20;;;16.20;85.70;;;;;;5064883;28;20032;-74
2022/11/07 02:19:53;;;;;;;2.75;1.08;;;16.30;85.50;;;;;;5062844;28;20036;-75
2022/11/07 02:22:23;;;;;;;4.30;1.20;;;16.30;85.70;;;;;;5046282;28;20431;-73
2022/11/07 02:24:53;;;;;;;2.97;1.20;;;16.20;85.40;;;;;;5062764;28;20020;-73
2022/11/07 02:27:21;;;;;;;2.72;1.02;;;16.20;85.80;;;;;;5064898;28;20036;-74
2022/11/07 02:29:50;;;;;;;2.97;1.05;;;16.20;85.80;;;;;;5055966;28;20100;-74
2022/11/07 02:32:16;;;;;;;2.22;1.15;;;16.20;85.80;;;;;;5065097;28;20511;-74
2022/11/07 02:34:42;;;;;;;3.30;1.23;;;16.20;85.80;;;;;;5064808;28;20054;-74
2022/11/07 02:37:23;;;;;;;4.30;1.42;;;16.10;85.90;;;;;;5066103;28;20701;-74
2022/11/07 02:39:49;;;;;;;2.17;1.10;;;16.10;86.10;;;;;;5066394;28;20012;-75
2022/11/07 02:42:15;;;;;;;2.15;1.00;;;16.10;86.30;;;;;;5064701;28;20032;-74
2022/11/07 02:44:40;;;;;;;2.13;0.90;;;16.10;86.10;;;;;;5065738;28;20480;-74
2022/11/07 02:47:06;;;;;;;2.95;1.33;;;16.10;85.80;;;;;;5059903;28;20029;-75
2022/11/07 02:49:31;;;;;;;2.33;0.93;;;16.10;85.70;;;;;;5048523;28;20417;-74
2022/11/07 02:51:57;;;;;;;2.78;0.90;;;16.10;86.00;;;;;;5047167;28;20472;-74
2022/11/07 02:54:22;;;;;;;2.55;1.08;;;16.10;86.00;;;;;;5045865;28;20040;-74
2022/11/07 02:56:48;;;;;;;1.85;0.98;;;16.10;86.30;;;;;;5060780;28;20393;-74
2022/11/07 02:59:14;;;;;;;2.15;0.90;;;16.10;86.00;;;;;;5049155;28;20558;-74
2022/11/07 03:01:39;;;;;;;1.20;0.88;;;16.10;85.90;;;;;;5051344;28;20020;-74
2022/11/07 03:04:05;;;;;;;1.65;0.90;;;16.10;85.80;;;;;;5044511;28;20025;-75
2022/11/07 03:06:30;;;;;;;1.77;0.90;;;16.10;86.10;;;;;;5060696;28;20071;-74
2022/11/07 03:08:56;;;;;;;1.75;0.93;;;16.10;86.50;;;;;;5046040;28;20021;-74
2022/11/07 03:11:21;;;;;;;2.15;1.00;;;16.10;86.40;;;;;;5048989;28;20480;-74
2022/11/07 03:13:48;;;;;;;2.45;1.00;;;16.20;86.60;;;;;;5056785;28;20036;-75
2022/11/07 03:16:15;;;;;;;2.08;1.02;;;16.10;86.30;;;;;;5055640;28;20111;-74
2022/11/07 03:18:40;;;;;;;1.85;1.00;;;16.10;86.20;;;;;;5061677;28;20032;-73
2022/11/07 03:21:06;;;;;;;1.48;0.80;;;16.20;86.10;;;;;;5062480;28;20020;-74
2022/11/07 03:23:33;;;;;;;2.03;1.00;;;16.20;85.70;;;;;;5057900;28;20029;-74
2022/11/07 03:25:59;;;;;;;2.00;1.00;;;16.10;85.40;;;;;;5060556;28;20039;-75
2022/11/07 03:28:25;;;;;;;2.30;1.00;;;16.10;85.50;;;;;;5063755;28;20103;-74
2022/11/07 03:30:51;;;;;;;2.33;1.00;;;16.10;85.70;;;;;;5057250;28;20477;-75
2022/11/07 03:33:16;;;;;;;2.10;1.00;;;16.10;85.60;;;;;;5044798;28;20044;-73
2022/11/07 03:35:42;;;;;;;2.75;1.00;;;16.10;85.70;;;;;;5045023;28;20028;-74
2022/11/07 03:38:08;;;;;;;2.78;1.15;;;16.10;85.40;;;;;;5056814;28;20031;-74
2022/11/07 03:40:34;;;;;;;1.40;0.90;;;16.10;85.70;;;;;;5050059;28;20676;-74
2022/11/07 03:42:59;;;;;;;1.88;1.00;;;16.10;85.60;;;;;;5060128;28;20032;-75
2022/11/07 03:45:25;;;;;;;1.55;0.85;;;16.10;85.60;;;;;;5047823;28;20353;-73
2022/11/07 03:47:50;;;;;;;1.77;0.98;;;16.00;85.60;;;;;;5058140;28;20021;-75
2022/11/07 03:50:18;;;;;;;1.95;0.90;;;16.00;85.50;;;;;;5063128;28;20020;-74
2022/11/07 03:52:45;;;;;;;1.40;0.70;;;16.00;85.70;;;;;;5060875;28;20034;-73
2022/11/07 03:55:11;;;;;;;1.33;0.80;;;16.00;85.60;;;;;;5063314;28;20013;-74
2022/11/07 03:57:37;;;;;;;1.65;0.95;;;16.00;85.80;;;;;;5064926;28;20466;-75
2022/11/07 04:00:06;;;;;;;1.83;0.98;;;16.00;85.80;;;;;;5063754;28;20017;-75
2022/11/07 04:02:31;;;;;;;1.85;0.90;;;16.00;86.20;;;;;;5064381;28;20560;-74
2022/11/07 04:04:57;;;;;;;1.48;0.77;;;16.00;86.00;;;;;;5063544;28;20112;-74
2022/11/07 04:07:22;;;;;;;2.30;0.90;;;16.00;86.20;;;;;;5064999;28;20016;-75
2022/11/07 04:09:48;;;;;;;1.15;0.80;;;16.00;86.50;;;;;;5063466;28;20023;-74
2022/11/07 04:17:41;;;;;;;1.38;0.90;;;16.00;86.30;;;;;;5065174;28;20569;-74
2022/11/07 04:20:08;;;;;;;1.55;0.90;;;16.00;86.20;;;;;;5064623;28;20070;-74
2022/11/07 04:22:34;;;;;;;1.92;0.80;;;16.10;86.10;;;;;;5061747;28;20107;-74
2022/11/07 04:24:59;;;;;;;1.55;0.82;;;16.10;86.10;;;;;;5047981;28;20025;-73
2022/11/07 04:27:43;;;;;;;2.28;0.95;;;16.10;85.90;;;;;;5048108;28;20040;-74
2022/11/07 04:30:19;;;;;;;1.48;0.88;;;16.10;85.80;;;;;;5060286;28;20180;-74
2022/11/07 04:32:44;;;;;;;2.40;0.95;;;16.10;85.80;;;;;;5064058;28;20086;-73
2022/11/07 04:35:10;;;;;;;0.98;0.75;;;16.10;85.60;;;;;;5064372;28;20478;-74
2022/11/07 04:37:35;;;;;;;1.58;0.90;;;16.10;85.70;;;;;;5063576;28;20054;-75
2022/11/07 04:40:01;;;;;;;1.67;0.70;;;16.00;85.40;;;;;;5062748;28;20082;-75
2022/11/07 04:42:26;;;;;;;1.50;0.85;;;16.00;86.10;;;;;;5063982;28;20086;-74
2022/11/07 04:44:52;;;;;;;1.33;0.70;;;16.00;86.10;;;;;;5064026;28;20059;-74
2022/11/07 04:47:17;;;;;;;2.92;1.10;;;16.00;86.10;;;;;;5054046;28;20024;-73
2022/11/07 04:49:43;;;;;;;1.50;0.65;;;16.00;85.80;;;;;;5056055;28;20025;-74
2022/11/07 04:52:10;;;;;;;1.92;0.90;;;16.00;86.00;;;;;;5055626;28;20772;-75
2022/11/07 04:54:35;;;;;;;1.55;0.80;;;16.00;86.00;;;;;;5052379;28;20036;-75
2022/11/07 04:57:01;;;;;;;1.10;0.80;;;16.00;85.80;;;;;;5062697;28;20048;-74
2022/11/07 04:59:26;;;;;;;1.58;0.70;;;16.00;86.20;;;;;;5063166;28;20131;-74
2022/11/07 05:01:52;;;;;;;1.52;0.90;;;16.00;86.30;;;;;;5062200;28;20029;-74
2022/11/07 05:04:17;;;;;;;2.00;0.90;;;16.00;86.30;;;;;;5061723;28;20104;-74
2022/11/07 05:06:43;;;;;;;1.90;0.82;;;16.00;86.20;;;;;;5048209;28;20430;-73
2022/11/07 05:09:15;;;;;;;1.02;0.80;;;16.00;86.40;;;;;;5046262;28;20131;-73
2022/11/07 05:11:40;;;;;;;1.83;0.88;;;16.00;86.40;;;;;;5073569;28;20030;-74
2022/11/07 05:14:07;;;;;;;2.33;0.80;;;15.90;85.90;;;;;;5044064;28;20033;-75
2022/11/07 05:16:33;;;;;;;2.58;0.80;;;15.90;86.40;;;;;;5054183;28;20032;-74
2022/11/07 05:18:59;;;;;;;2.15;0.90;;;15.90;86.50;;;;;;5064010;28;20526;-74
2022/11/07 05:21:24;;;;;;;1.75;0.80;;;15.90;86.20;;;;;;5064657;28;20099;-76
2022/11/07 05:23:50;;;;;;;1.75;0.90;;;15.90;86.20;;;;;;5052961;28;20393;-74
2022/11/07 05:26:15;;;;;;;1.88;0.75;;;16.00;86.20;;;;;;5062237;28;20025;-73
2022/11/07 05:28:41;;;;;;;2.70;0.93;;;16.00;86.10;;;;;;5059838;28;20020;-74
2022/11/07 05:31:07;;;;;;;2.15;0.80;;;16.00;86.00;;;;;;5063829;28;20024;-73
2022/11/07 05:33:33;;;;;;;2.38;0.88;;;16.00;86.00;;;;;;5066435;28;20700;-74
2022/11/07 05:36:16;;;;;;;1.88;0.80;;;16.00;85.90;;;;;;5065606;28;20051;-76
2022/11/07 05:38:47;;;;;;;1.58;0.70;;;16.00;85.80;;;;;;5067168;28;20031;-73
2022/11/07 05:41:14;;;;;;;1.63;0.70;;;16.00;85.80;;;;;;5067164;28;20763;-74
2022/11/07 05:43:39;;;;;;;1.52;0.80;;;16.00;86.20;;;;;;5065604;28;20029;-73
2022/11/07 05:46:06;;;;;;;1.63;0.70;;;16.00;86.10;;;;;;5064138;28;20017;-74
2022/11/07 05:48:31;;;;;;;1.48;0.70;;;15.90;86.20;;;;;;5063229;28;20691;-74
2022/11/07 05:50:57;;;;;;;1.27;0.75;;;16.00;86.20;;;;;;5066454;28;20070;-73
2022/11/07 05:53:24;;;;;;;2.10;0.80;;;15.90;86.20;;;;;;5059848;28;20028;-75
2022/11/07 05:55:51;;;;;;;1.98;0.77;;;15.90;86.20;;;;;;5066856;28;20028;-72
2022/11/07 05:58:18;;;;;;;1.17;0.70;;;15.90;86.50;;;;;;5066159;28;20051;-72
2022/11/07 06:00:44;;;;;;;3.55;0.80;;;15.90;86.40;;;;;;5065606;28;20016;-71
2022/11/07 06:03:10;;;;;;;1.70;0.80;;;16.00;86.50;;;;;;5061511;28;20495;-72
2022/11/07 06:05:38;;;;;;;1.25;0.85;;;15.90;86.30;;;;;;5045923;28;20052;-75
2022/11/07 06:08:04;;;;;;;1.65;0.70;;;16.00;86.20;;;;;;5056886;28;20028;-71
2022/11/07 06:10:29;;;;;;;2.28;0.70;;;15.90;86.50;;;;;;5063189;28;20434;-72
2022/11/07 06:13:00;;;;;;;1.30;0.80;;;15.90;86.40;;;;;;5063303;28;20032;-73
2022/11/07 06:15:27;;;;;;;1.50;0.80;;;15.90;86.30;;;;;;5061970;28;20063;-72
2022/11/07 06:17:53;;;;;;;1.63;0.77;;;15.90;86.50;;;;;;5050068;28;20052;-72
2022/11/07 06:20:19;;;;;;;1.95;0.82;;;15.90;86.60;;;;;;5065714;28;20104;-71
2022/11/07 06:22:44;;;;;;;2.30;0.95;;;15.90;86.60;;;;;;5065069;28;20195;-72
2022/11/07 06:25:10;;;;;;;1.65;0.82;;;15.90;86.40;;;;;;5065334;28;20017;-72
2022/11/07 06:27:35;;;;;;;1.92;0.80;;;15.90;86.20;;;;;;5054281;28;20036;-72
2022/11/07 06:30:01;;;;;;;2.58;0.90;;;15.90;86.10;;;;;;5065337;28;20090;-70
2022/11/07 06:32:27;;;;;;;1.95;0.80;;;15.90;85.80;;;;;;5063625;28;20519;-73
2022/11/07 06:34:52;;;;;;;1.42;0.70;;;15.90;85.70;;;;;;5056784;28;20039;-74
2022/11/07 06:37:18;;;;;;;1.70;0.73;;;16.00;85.90;;;;;;5064144;28;20029;-72
2022/11/07 06:39:43;;;;;;;2.45;0.85;;;16.10;86.10;;;;;;5058486;28;20480;-72
2022/11/07 06:42:09;;;;;;;1.48;0.70;;;15.90;85.80;;;;;;5056440;28;20032;-72
2022/11/07 06:44:35;;;;;;;2.30;0.93;;;15.90;85.90;;;;;;5074571;28;20440;-73
2022/11/07 06:47:01;;;;;;;1.10;0.60;;;15.90;86.00;;;;;;5045757;28;20413;-72
2022/11/07 06:49:26;;;;;;;1.73;0.68;;;15.90;86.00;;;;;;5046024;28;20465;-75
2022/11/07 06:51:52;;;;;;;2.45;0.80;;;15.90;86.20;;;;;;5044428;28;20059;-73
2022/11/07 06:54:17;;;;;;;2.08;0.77;;;15.90;86.10;;;;;;5044296;28;20840;-75
2022/11/07 06:56:43;;;;;;;1.42;0.70;;;15.90;86.20;;;;;;5044830;28;20040;-75
2022/11/07 06:59:09;;;;;;;2.33;0.77;;;15.90;86.40;;;;;;5049291;28;20039;-75
2022/11/07 07:01:34;;;;;;;1.70;0.80;;;15.80;86.30;;;;;;5063769;28;20039;-74
2022/11/07 07:04:00;;;;;;;2.35;0.80;;;15.90;86.30;;;;;;5063630;28;20041;-74
2022/11/07 07:06:25;;;;;;;1.00;0.70;;;15.90;86.30;;;;;;5064393;28;20111;-72
2022/11/07 07:08:51;;;;;;;1.90;0.93;;;15.90;86.30;;;;;;5065717;28;20107;-74
2022/11/07 07:11:17;;;;;;;2.05;0.90;;;15.90;86.30;;;;;;5064792;28;20095;-74
2022/11/07 07:13:42;;;;;;;2.13;0.90;;;15.90;86.00;;;;;;5064535;28;20107;-74
2022/11/07 07:16:08;;;;;;;4.28;0.73;;;15.80;85.70;;;;;;5063498;28;20044;-74
2022/11/07 07:18:34;;;;;;;3.15;0.93;;;15.80;85.40;;;;;;5065762;28;20480;-74
2022/11/07 07:21:11;;;;;;;2.22;0.68;;;15.80;85.40;;;;;;5065306;28;20136;-75
2022/11/07 07:23:40;;;;;;;3.53;0.90;;;15.80;85.60;;;;;;5064460;28;20530;-73
2022/11/07 07:26:08;;;;;;;3.08;0.90;;;15.90;85.60;;;;;;5064087;28;20058;-74
2022/11/07 07:28:36;;;;;;;4.15;1.05;;;15.90;85.80;;;;;;5063934;28;20379;-75
2022/11/07 07:31:13;;;;;;;2.05;0.70;;;15.80;85.50;;;;;;5061770;28;20025;-74
2022/11/07 07:33:44;;;;;;;1.88;0.80;;;15.90;85.70;;;;;;5077051;28;20777;-74
2022/11/07 07:36:11;;;;;;;3.05;1.00;;;16.00;85.30;;;;;;5053144;28;20017;-75
2022/11/07 07:38:36;;;;;;;2.95;0.80;;;15.90;84.90;;;;;;5046158;28;20891;-74
2022/11/07 07:41:03;;;;;;;4.72;1.00;;;16.00;85.10;;;;;;5047455;28;20032;-74
2022/11/07 07:43:29;;;;;;;4.53;0.90;;;16.00;84.60;;;;;;5075543;28;20107;-73
2022/11/07 07:46:03;;;;;;;5.22;1.20;;;16.00;84.70;;;;;;5076601;28;20094;-73
2022/11/07 07:48:30;;;;;;;6.20;1.17;;;16.00;84.40;;;;;;5050210;28;20090;-73
2022/11/07 07:50:56;;;;;;;9.93;1.40;;;16.00;84.40;;;;;;5063014;28;20710;-74
2022/11/07 07:53:21;;;;;;;5.32;0.98;;;16.00;84.60;;;;;;5063319;28;20048;-77
2022/11/07 07:55:47;;;;;;;8.07;1.10;;;16.00;84.90;;;;;;5064452;28;20108;-74
2022/11/07 07:58:13;;;;;;;6.35;1.02;;;15.90;84.90;;;;;;5062480;28;20032;-76
2022/11/07 08:00:39;;;;;;;5.72;1.00;;;15.90;84.80;;;;;;5062875;28;20095;-74
2022/11/07 08:03:08;;;;;;;5.07;1.00;;;15.90;84.90;;;;;;5063454;28;20044;-74
2022/11/07 08:05:33;;;;;;;8.52;1.00;;;15.90;85.20;;;;;;5062735;28;20123;-74
2022/11/07 08:07:59;;;;;;;6.22;1.20;;;15.90;85.20;;;;;;5062086;28;20395;-74
2022/11/07 08:10:24;;;;;;;2.85;0.77;;;15.90;85.30;;;;;;5063087;28;20066;-74
2022/11/07 08:12:51;;;;;;;4.43;0.90;;;15.90;85.30;;;;;;5063534;28;20029;-74
2022/11/07 08:15:18;;;;;;;5.80;1.13;;;15.90;85.30;;;;;;5063082;28;20266;-74
2022/11/07 08:17:44;;;;;;;4.63;1.00;;;15.90;85.50;;;;;;5061998;28;20074;-74
2022/11/07 08:20:12;;;;;;;3.13;0.93;;;15.90;85.60;;;;;;5062648;28;20021;-74
2022/11/07 08:22:38;;;;;;;3.33;0.90;;;15.90;86.10;;;;;;5061719;28;20032;-75
2022/11/07 08:25:08;;;;;;;5.15;1.10;;;15.90;85.40;;;;;;5063677;28;20029;-75
2022/11/07 08:27:34;;;;;;;3.03;0.80;;;15.90;85.40;;;;;;5063258;28;20028;-74
2022/11/07 08:30:00;;;;;;;2.60;0.85;;;15.90;85.60;;;;;;5063424;28;20035;-75
2022/11/07 08:32:26;;;;;;;5.80;1.20;;;15.90;85.50;;;;;;5062899;28;20118;-75
2022/11/07 08:34:52;;;;;;;3.22;0.90;;;15.90;85.30;;;;;;5062317;28;20032;-74
2022/11/07 08:37:18;;;;;;;5.47;1.10;;;15.90;85.30;;;;;;5060212;28;20020;-75
2022/11/07 08:39:43;;;;;;;3.95;0.90;;;16.00;85.00;;;;;;5061839;28;20039;-74
2022/11/07 08:42:09;;;;;;;2.08;0.80;;;16.00;84.90;;;;;;5062697;28;20486;-73
2022/11/07 08:44:35;;;;;;;6.20;1.13;;;16.00;84.80;;;;;;5062820;28;20029;-75
2022/11/07 08:47:02;;;;;;;2.85;1.05;;;15.90;84.50;;;;;;5062045;28;20024;-74
2022/11/07 08:49:27;;;;;;;3.15;1.00;;;16.00;84.70;;;;;;5062377;28;20050;-74
2022/11/07 08:51:53;;;;;;;4.35;0.95;;;16.10;84.60;;;;;;5062731;28;20016;-73
2022/11/07 08:54:20;;;;;;;3.88;0.95;;;16.10;84.60;;;;;;5062260;28;20025;-74
2022/11/07 08:56:46;;;;;;;3.30;0.98;;;16.10;84.70;;;;;;5062404;28;20097;-74
2022/11/07 08:59:11;;;;;;;5.18;0.90;;;16.20;84.70;;;;;;5058952;28;20040;-74
2022/11/07 09:01:37;;;;;;;3.38;0.90;;;16.20;85.00;;;;;;5062015;28;20468;-74
2022/11/07 09:04:02;;;;;;;3.25;1.00;;;16.30;84.30;;;;;;5065948;28;20013;-75
2022/11/07 09:06:28;;;;;;;2.33;0.80;;;16.30;84.20;;;;;;5066409;28;20424;-79
2022/11/07 09:08:54;;;;;;;3.17;1.10;;;16.30;84.10;;;;;;5066938;28;20097;-74
2022/11/07 09:11:20;;;;;;;3.45;0.80;;;16.30;84.00;;;;;;5066395;28;20021;-76
2022/11/07 09:13:46;;;;;;;2.10;0.80;;;16.40;84.00;;;;;;5064461;28;20032;-75
2022/11/07 09:16:16;;;;;;;2.75;0.65;;;16.40;83.90;;;;;;5064644;28;20020;-74
2022/11/07 09:18:42;;;;;;;3.30;0.90;;;16.40;83.80;;;;;;5065228;28;20517;-74
2022/11/07 09:21:07;;;;;;;2.25;0.75;;;16.40;83.90;;;;;;5064128;28;20032;-74
2022/11/07 09:23:33;;;;;;;2.45;0.80;;;16.40;84.00;;;;;;5061569;28;20052;-74
2022/11/07 09:25:59;;;;;;;2.40;0.80;;;16.40;84.00;;;;;;5064674;28;20027;-74
2022/11/07 09:28:25;;;;;;;4.45;0.88;;;16.30;84.10;;;;;;5064758;28;20710;-74
2022/11/07 09:30:55;;;;;;;2.58;0.70;;;16.30;84.20;;;;;;5066927;28;20095;-74
2022/11/07 09:33:22;;;;;;;1.40;0.60;;;16.30;84.00;;;;;;5063429;28;20056;-73
2022/11/07 09:35:48;;;;;;;2.13;0.80;;;16.20;84.40;;;;;;5063795;28;20306;-74
2022/11/07 09:38:13;;;;;;;2.88;0.90;;;16.20;84.30;;;;;;5065506;28;20391;-75
2022/11/07 09:40:58;;;;;;;2.72;0.98;;;16.20;84.10;;;;;;5067559;28;20126;-74
2022/11/07 09:43:57;;;;;;;1.80;0.70;;;16.20;84.50;;;;;;5065886;28;20055;-75
2022/11/07 09:46:31;;;;;;;2.20;0.90;;;16.20;84.50;;;;;;5062180;28;20553;-75
2022/11/07 09:49:09;;;;;;;1.58;0.57;;;16.20;84.20;;;;;;5065218;28;20021;-74
2022/11/07 09:51:38;;;;;;;3.90;0.90;;;16.20;84.20;;;;;;5066150;28;20550;-75
2022/11/07 09:54:17;;;;;;;1.83;0.68;;;16.10;84.20;;;;;;5065233;28;20025;-75
2022/11/07 09:56:43;;;;;;;2.35;0.70;;;16.20;84.40;;;;;;5052622;28;20408;-74
2022/11/07 09:59:28;;;;;;;3.97;0.80;;;16.00;84.20;;;;;;5065869;28;20056;-74
2022/11/07 10:01:54;;;;;;;3.35;1.00;;;16.20;84.40;;;;;;5065447;28;20717;-75
2022/11/07 10:04:22;;;;;;;2.00;0.80;;;16.20;84.70;;;;;;5064148;28;20030;-73
2022/11/07 10:06:57;;;;;;;1.58;0.52;;;16.10;84.90;;;;;;5066271;28;20109;-74
2022/11/07 10:09:38;;;;;;;2.33;0.73;;;16.10;84.90;;;;;;5065997;28;20656;-74
2022/11/07 10:12:18;;;;;;;2.15;0.82;;;16.10;84.90;;;;;;5064757;28;20020;-74
2022/11/07 10:14:49;;;;;;;2.33;0.70;;;16.10;85.00;;;;;;5064930;28;20424;-75
2022/11/07 10:17:45;;;;;;;2.53;0.75;;;16.10;84.70;;;;;;5064753;28;20139;-74
2022/11/07 10:20:29;;;;;;;1.05;0.60;;;16.10;84.90;;;;;;5066408;28;20067;-74
2022/11/07 10:23:03;;;;;;;2.10;0.90;;;16.10;84.90;;;;;;5065379;28;20028;-75
2022/11/07 10:25:40;;;;;;;2.70;0.80;;;16.10;84.90;;;;;;5053430;28;20818;-75
2022/11/07 10:28:06;;;;;;;2.38;0.73;;;16.10;85.00;;;;;;5060982;28;20048;-74
2022/11/07 10:30:32;;;;;;;3.25;0.95;;;16.10;85.00;;;;;;5065084;28;20056;-74
2022/11/07 10:33:22;;;;;;;2.50;0.88;;;16.10;84.90;;;;;;5064403;28;20100;-74
2022/11/07 10:35:57;;;;;;;1.92;0.65;;;16.10;84.90;;;;;;5065643;28;20032;-75
2022/11/07 10:38:28;;;;;;;2.63;0.80;;;16.10;85.00;;;;;;5064912;28;20387;-75
2022/11/07 10:40:54;;;;;;;1.73;0.75;;;16.10;84.90;;;;;;5064767;28;20020;-74
2022/11/07 10:43:39;;;;;;;1.95;0.70;;;16.10;85.00;;;;;;5063655;28;20036;-74
2022/11/07 10:46:14;;;;;;;2.70;0.80;;;16.10;84.90;;;;;;5064612;28;20020;-73
2022/11/07 10:48:57;;;;;;;1.20;0.60;;;16.20;84.80;;;;;;5065940;28;20024;-74
2022/11/07 10:51:37;;;;;;;2.13;1.02;;;16.20;84.50;;;;;;5064391;28;20441;-75
2022/11/07 10:54:04;;;;;;;1.73;0.70;;;16.30;84.40;;;;;;5060980;28;20035;-74
2022/11/07 10:56:41;;;;;;;2.13;0.80;;;16.30;84.20;;;;;;5052348;28;20059;-75
2022/11/07 10:59:13;;;;;;;1.83;0.77;;;16.30;84.20;;;;;;5053295;28;20028;-73
2022/11/07 11:01:38;;;;;;;2.60;0.75;;;16.30;84.20;;;;;;5050941;28;20041;-74
2022/11/07 11:04:04;;;;;;;1.38;0.70;;;16.30;84.30;;;;;;5053619;28;20271;-75
2022/11/07 11:06:30;;;;;;;1.70;0.70;;;16.30;84.40;;;;;;5057228;28;20028;-74
2022/11/07 11:08:57;;;;;;;2.92;0.65;;;16.30;84.50;;;;;;5052712;28;20032;-74
2022/11/07 11:11:31;;;;;;;3.30;0.80;;;16.20;84.50;;;;;;5052276;28;20545;-76
2022/11/07 11:14:11;;;;;;;4.00;1.08;;;16.20;84.50;;;;;;5057375;28;20040;-75
2022/11/07 11:16:39;;;;;;;3.78;0.85;;;16.20;84.10;;;;;;5056602;28;20125;-75
2022/11/07 11:19:16;;;;;;;4.80;1.20;;;16.20;84.30;;;;;;5059301;28;20051;-74
2022/11/07 11:21:44;;;;;;;2.38;0.82;;;16.20;84.20;;;;;;5045326;28;20471;-75
2022/11/07 11:24:19;;;;;;;4.70;1.10;;;16.20;84.30;;;;;;5057330;28;20059;-75
2022/11/07 11:26:49;;;;;;;5.38;1.30;;;16.20;84.40;;;;;;5060362;28;20511;-74
2022/11/07 11:29:25;;;;;;;3.85;0.82;;;16.20;84.40;;;;;;5059898;28;20029;-75
2022/11/07 11:31:55;;;;;;;2.85;0.98;;;16.20;84.50;;;;;;5059367;28;20489;-75
2022/11/07 11:34:33;;;;;;;3.38;0.85;;;16.20;84.50;;;;;;5059872;28;20404;-74
2022/11/07 11:37:17;;;;;;;4.43;0.90;;;16.20;84.50;;;;;;5045242;28;20036;-75
2022/11/07 11:39:48;;;;;;;3.42;0.90;;;16.20;84.50;;;;;;5060355;28;20025;-75
2022/11/07 11:42:50;;;;;;;1.88;0.80;;;16.20;84.60;;;;;;5045117;28;20036;-75
2022/11/07 11:45:39;;;;;;;3.42;0.88;;;16.20;84.50;;;;;;5036290;28;20052;-75
2022/11/07 11:48:25;;;;;;;2.38;0.80;;;16.20;84.60;;;;;;5045142;28;20559;-75
2022/11/07 11:51:00;;;;;;;3.85;0.90;;;16.20;84.60;;;;;;5067850;28;20043;-75
2022/11/07 11:53:27;;;;;;;3.00;0.85;;;16.20;84.60;;;;;;5051948;28;20429;-75
2022/11/07 11:56:05;;;;;;;2.22;0.80;;;16.20;84.40;;;;;;5043302;28;20024;-75
2022/11/07 11:58:46;;;;;;;2.42;0.80;;;16.20;84.40;;;;;;5043458;28;20214;-74
2022/11/07 12:01:40;;;;;;;2.50;0.90;;;16.20;84.30;;;;;;5043251;28;20115;-74
2022/11/07 12:04:14;;;;;;;4.03;0.90;;;16.20;84.30;;;;;;5043166;28;20037;-75
2022/11/07 12:06:44;;;;;;;4.45;1.10;;;16.20;84.40;;;;;;5043795;28;20079;-75
2022/11/07 12:09:17;;;;;;;2.85;0.90;;;16.20;84.60;;;;;;5049689;28;20521;-75
2022/11/07 12:11:55;;;;;;;3.78;1.05;;;16.10;84.80;;;;;;5055533;28;20505;-76
2022/11/07 12:14:49;;;;;;;2.72;0.85;;;16.10;84.90;;;;;;5062717;28;20028;-74
2022/11/07 12:17:38;;;;;;;3.00;0.90;;;16.10;85.00;;;;;;5064121;28;20035;-75
2022/11/07 12:20:21;;;;;;;1.77;0.90;;;16.10;85.10;;;;;;5063170;28;20024;-74
2022/11/07 12:23:30;;;;;;;3.30;1.00;;;16.10;85.20;;;;;;5064251;28;20025;-74
2022/11/07 12:26:08;;;;;;;2.78;0.88;;;16.00;85.10;;;;;;5064675;28;20425;-74
2022/11/07 12:29:07;;;;;;;1.95;0.98;;;16.00;85.30;;;;;;5064553;28;20062;-74
2022/11/07 12:32:16;;;;;;;1.65;0.80;;;16.10;85.30;;;;;;5060609;28;20059;-74
2022/11/07 12:35:21;;;;;;;4.53;1.15;;;16.00;85.40;;;;;;5065178;28;20028;-74
2022/11/07 12:37:58;;;;;;;4.13;0.90;;;16.00;85.50;;;;;;5076304;28;20062;-76
2022/11/07 12:40:26;;;;;;;3.00;1.10;;;16.00;85.40;;;;;;5068220;28;20107;-75
2022/11/07 12:43:23;;;;;;;3.10;0.80;;;16.00;85.50;;;;;;5066356;28;20039;-75
2022/11/07 12:45:53;;;;;;;2.50;0.85;;;16.00;85.50;;;;;;5064961;28;20912;-74
2022/11/07 12:48:45;;;;;;;2.60;0.90;;;16.00;85.50;;;;;;5066505;28;20216;-74
2022/11/07 12:51:26;;;;;;;3.72;0.90;;;16.00;85.50;;;;;;5066605;28;20484;-74
2022/11/07 12:54:20;;;;;;;1.80;0.90;;;16.00;85.40;;;;;;5066232;28;20070;-74
2022/11/07 12:56:48;;;;;;;3.85;1.10;;;16.00;85.40;;;;;;5065652;28;20051;-74
2022/11/07 12:59:22;;;;;;;2.65;0.90;;;16.00;85.40;;;;;;5064655;28;20029;-74
2022/11/07 13:02:01;;;;;;;2.53;0.85;;;16.00;85.20;;;;;;5061445;28;20040;-74
2022/11/07 13:04:51;;;;;;;2.47;1.00;;;16.00;85.20;;;;;;5060969;28;20043;-75
2022/11/07 13:07:26;;;;;;;;;;;16.00;85.10;;;;;;5060109;28;20028;-74
2022/11/07 13:10:17;;;;;;;3.10;1.05;;;16.10;85.00;;;;;;5064008;28;19943;-74